Weather History for Omaha Offutt, NE

Change the Weather History Date:

Tuesday, February 4, 2014

  Actual Average Record
Temperature  
Mean Temperature 14 °F -  
Max Temperature 24 °F 34 °F 62 °F (2005)
Min Temperature 4 °F 17 °F -7 °F (2007)
Degree Days  
Heating Degree Days 50    
Moisture  
Dew Point 18 °F    
Average Humidity 95    
Maximum Humidity 100    
Minimum Humidity 78    
Precipitation  
Precipitation 0.20 in - - ()
Snow  
Snow 0.00 in - - ()
Snow Depth 4.00 in    
Sea Level Pressure  
Sea Level Pressure 30.27 in    
Wind  
Wind Speed 8 mph (NE)    
Max Wind Speed 20 mph    
Max Gust Speed 28 mph    
Visibility 5 miles    
Events Snow    
Averages and records for this station are not official NWS values.
T = Trace of Precipitation, MM = Missing Value Source: NWS Daily Summary

Daily Weather History Graph

Daily Weather History Graph

Search for Another Location

Airport:

Trip Planner

Search our weather history database for the weather conditions in past years. The results will help you decide how hot, cold, wet, or windy it might be!

Date:

Astronomy

Feb. 04, 2014 Rise Set
Actual Time 7:31 AM CST 5:44 PM CST
Civil Twilight 7:02 AM CST 6:13 PM CST
Nautical Twilight 6:29 AM CST 6:46 PM CST
Astronomical Twilight 5:57 AM CST 7:18 PM CST
Moon 10:06 AM CST (2/4) 11:43 PM CST (2/4)
Length of Visible Light 11h 10m
Length of Day
10h 12m
Waxing Crescent, 29% of the Moon is Illuminated
Feb 4
Waxing Crescent
Feb 6
First Quarter
Feb 14
Full
Feb 22
Last Quarter
Mar 1
New

Hourly Weather History & Observations

Time (CST) Temp. Windchill Dew Point Humidity Pressure Visibility Wind Dir Wind Speed Gust Speed Precip Events Conditions
12:03 AM 23.0 °F 17.0 °F 21.2 °F 93% 30.25 in 5.0 mi ESE 4.6 mph - N/A Snow Light Snow
12:08 AM 23.0 °F 18.4 °F 21.2 °F 93% 30.25 in 4.0 mi ESE 3.5 mph - N/A Snow Light Snow
12:13 AM 23.0 °F 18.4 °F 21.2 °F 93% 30.25 in 4.0 mi ESE 3.5 mph - N/A Snow Light Snow
12:28 AM 23.0 °F 17.0 °F 21.2 °F 93% 30.25 in 5.0 mi SSE 4.6 mph - N/A Snow Light Snow
12:58 AM 21.2 °F 14.9 °F 21.2 °F 100% 30.31 in 5.0 mi SE 4.6 mph - 0.00 in Snow Light Snow
1:08 AM 21.2 °F 13.6 °F 21.2 °F 100% 30.25 in 3.0 mi SE 5.8 mph - N/A Snow Light Snow
1:28 AM 23.0 °F 17.0 °F 21.2 °F 93% 30.24 in 4.0 mi East 4.6 mph - N/A Snow Light Snow
1:58 AM 22.3 °F 14.9 °F 22.1 °F 99% 30.30 in 3.0 mi East 5.8 mph - 0.00 in Snow Light Snow
2:43 AM 23.0 °F 18.4 °F 21.2 °F 93% 30.26 in 2.5 mi East 3.5 mph - N/A Snow Light Snow
2:58 AM 22.1 °F 17.4 °F 21.9 °F 99% 30.32 in 2.5 mi East 3.5 mph - 0.00 in Snow Light Snow
3:08 AM 21.2 °F 13.6 °F 21.2 °F 100% 30.25 in 3.0 mi ENE 5.8 mph - N/A Snow Light Snow
3:28 AM 21.2 °F 16.4 °F 21.2 °F 100% 30.25 in 2.5 mi NE 3.5 mph - N/A Snow Light Snow
3:33 AM 21.2 °F 13.6 °F 21.2 °F 100% 30.25 in 2.5 mi ENE 5.8 mph - N/A Snow Light Snow
3:38 AM 21.2 °F 13.6 °F 21.2 °F 100% 30.25 in 3.0 mi ENE 5.8 mph - N/A Snow Light Snow
3:53 AM 21.2 °F 16.4 °F 21.2 °F 100% 30.25 in 6.0 mi East 3.5 mph - N/A Snow Light Snow
3:58 AM 21.9 °F 17.2 °F 21.6 °F 99% 30.31 in 6.0 mi East 3.5 mph - 0.00 in Snow Light Snow
4:08 AM 21.2 °F 16.4 °F 21.2 °F 100% 30.25 in 7.0 mi East 3.5 mph - N/A Snow Light Snow
4:29 AM 21.2 °F 16.4 °F 21.2 °F 100% 30.25 in 9.0 mi East 3.5 mph - N/A   Overcast
4:34 AM 21.2 °F 14.9 °F 21.2 °F 100% 30.25 in 10.0 mi East 4.6 mph - N/A   Overcast
4:39 AM 21.2 °F 16.4 °F 21.2 °F 100% 30.25 in 10.0 mi ENE 3.5 mph - N/A Snow Light Snow
4:49 AM 23.0 °F 18.4 °F 23.0 °F 100% 30.25 in 9.0 mi NE 3.5 mph - N/A Snow Light Snow
4:58 AM 22.5 °F 17.8 °F 22.3 °F 99% 30.31 in 8.0 mi NNE 3.5 mph - 0.00 in Snow Light Snow
5:23 AM 23.0 °F 14.7 °F 23.0 °F 100% 30.25 in 10.0 mi NNE 6.9 mph - N/A Snow Light Snow
5:36 AM 23.0 °F 13.1 °F 23.0 °F 100% 30.25 in 10.0 mi NE 9.2 mph - N/A   Overcast
5:58 AM 23.2 °F 15.0 °F 23.0 °F 99% 30.32 in 10.0 mi NE 6.9 mph - 0.00 in   Overcast
6:23 AM 23.0 °F 15.8 °F 23.0 °F 100% 30.27 in 10.0 mi ENE 5.8 mph - N/A   Overcast
6:58 AM 23.2 °F 18.7 °F 23.0 °F 99% 30.33 in 10.0 mi NE 3.5 mph - N/A   Overcast
7:33 AM 23.0 °F 15.8 °F 23.0 °F 100% 30.25 in 10.0 mi NNE 5.8 mph - N/A   Overcast
7:56 AM 23.0 °F 13.1 °F 23.0 °F 100% 30.25 in 10.0 mi ENE 9.2 mph - N/A   Mostly Cloudy
7:58 AM 23.0 °F 13.1 °F 23.0 °F 100% 30.31 in 10.0 mi ENE 9.2 mph - N/A   Mostly Cloudy
8:29 AM 23.0 °F 14.7 °F 23.0 °F 100% 30.25 in 9.0 mi NE 6.9 mph - N/A   Scattered Clouds
8:58 AM 23.9 °F 15.8 °F 23.5 °F 99% 30.30 in 10.0 mi NE 6.9 mph - 0.00 in   Mostly Cloudy
9:10 AM 24.8 °F 16.9 °F 23.0 °F 93% 30.24 in 10.0 mi NE 6.9 mph - N/A   Overcast
9:20 AM 24.8 °F 16.1 °F 23.0 °F 93% 30.24 in 10.0 mi NE 8.1 mph - N/A   Overcast
9:21 AM 24.8 °F 16.1 °F 23.0 °F 93% 30.24 in 10.0 mi NE 8.1 mph - N/A   Overcast
9:26 AM 23.0 °F 11.7 °F 23.0 °F 100% 30.25 in 10.0 mi NE 11.5 mph - N/A   Overcast
9:47 AM 23.0 °F 13.1 °F 21.2 °F 93% 30.25 in 10.0 mi NE 9.2 mph 17.3 mph N/A   Overcast
9:57 AM 21.2 °F 8.9 °F 21.2 °F 100% 30.26 in 10.0 mi NE 12.7 mph - N/A   Overcast
9:58 AM 21.2 °F 8.9 °F 21.2 °F 100% 30.32 in 10.0 mi NE 12.7 mph - 0.00 in   Overcast
9:59 AM 21.2 °F 10.1 °F 21.2 °F 100% 30.26 in 10.0 mi NE 10.4 mph - N/A   Overcast
10:00 AM 21.2 °F 10.9 °F 21.2 °F 100% 30.26 in 10.0 mi NE 9.2 mph - N/A   Overcast
10:15 AM 21.2 °F 8.9 °F 19.4 °F 93% 30.26 in 9.0 mi NE 12.7 mph 17.3 mph N/A   Overcast
10:20 AM 21.2 °F 8.9 °F 19.4 °F 93% 30.26 in 7.0 mi NE 12.7 mph 17.3 mph N/A Snow Light Snow
10:45 AM 21.2 °F 10.9 °F 19.4 °F 93% 30.26 in 4.0 mi NE 9.2 mph 18.4 mph N/A Snow Light Snow
10:50 AM 21.2 °F 10.1 °F 21.2 °F 100% 30.26 in 2.5 mi NE 10.4 mph - N/A Snow Light Snow
10:55 AM 21.2 °F 10.9 °F 21.2 °F 100% 30.26 in 1.8 mi NE 9.2 mph - N/A Snow Light Snow
10:58 AM 21.2 °F 9.5 °F 21.2 °F 100% 30.32 in 1.8 mi NE 11.5 mph - 0.00 in Snow Light Snow
11:13 AM 21.2 °F 10.1 °F 21.2 °F 100% 30.25 in 1.2 mi NE 10.4 mph - N/A Snow Light Snow
11:28 AM 21.2 °F 10.1 °F 21.2 °F 100% 30.25 in 1.0 mi NE 10.4 mph - N/A Snow Light Snow
11:58 AM 21.4 °F 11.1 °F 20.8 °F 98% 30.30 in 1.0 mi NNE 9.2 mph - 0.01 in Snow Light Snow
12:03 PM 21.2 °F 10.1 °F 21.2 °F 100% 30.24 in 1.2 mi NNE 10.4 mph - N/A Snow Light Snow
12:18 PM 21.2 °F 8.9 °F 19.4 °F 93% 30.23 in 2.0 mi NNE 12.7 mph - N/A Snow Light Snow
12:29 PM 21.2 °F 10.9 °F 19.4 °F 93% 30.23 in 1.8 mi NNE 9.2 mph - N/A Snow Light Snow
12:58 PM 19.9 °F 7.3 °F 19.0 °F 96% 30.30 in 1.5 mi NNE 12.7 mph - 0.01 in Snow Light Snow
1:03 PM 19.4 °F 6.0 °F 19.4 °F 100% 30.23 in 1.5 mi North 13.8 mph 17.3 mph N/A Snow Light Snow
1:33 PM 19.4 °F 8.6 °F 17.6 °F 93% 30.24 in 1.0 mi NNE 9.2 mph 17.3 mph N/A Snow Light Snow
1:38 PM 19.4 °F 7.9 °F 17.6 °F 93% 30.23 in 1.0 mi North 10.4 mph 17.3 mph N/A Snow Light Snow
1:43 PM 17.6 °F 5.0 °F 17.6 °F 100% 30.23 in 1.2 mi North 11.5 mph - N/A Snow Light Snow
1:53 PM 17.6 °F 6.4 °F 17.6 °F 100% 30.23 in 1.0 mi North 9.2 mph - N/A Snow Light Snow
1:58 PM 18.3 °F 5.9 °F 17.2 °F 96% 30.29 in 1.0 mi NNE 11.5 mph - 0.02 in Snow Light Snow
2:08 PM 17.6 °F 5.0 °F 17.6 °F 100% 30.22 in 1.0 mi North 11.5 mph 18.4 mph N/A Snow Light Snow
2:11 PM 17.6 °F 4.3 °F 17.6 °F 100% 30.22 in 1.0 mi North 12.7 mph 18.4 mph N/A Snow Light Snow
2:36 PM 17.6 °F 2.7 °F 17.6 °F 100% 30.21 in 1.2 mi North 16.1 mph 20.7 mph N/A Snow Light Snow
2:46 PM 17.6 °F 3.2 °F 17.6 °F 100% 30.21 in 1.2 mi North 15.0 mph 21.9 mph N/A Snow Light Snow
2:58 PM 18.3 °F 5.2 °F 16.7 °F 93% 30.28 in 1.5 mi North 12.7 mph 23.0 mph 0.02 in Snow Light Snow
3:18 PM 17.6 °F 3.7 °F 15.8 °F 93% 30.21 in 1.5 mi North 13.8 mph 20.7 mph N/A Snow Light Snow
3:43 PM 17.6 °F 4.3 °F 15.8 °F 93% 30.21 in 1.5 mi North 12.7 mph 23.0 mph N/A Snow Light Snow
3:58 PM 16.9 °F 3.4 °F 14.7 °F 91% 30.28 in 1.5 mi North 12.7 mph 27.6 mph 0.03 in Snow Light Snow
4:03 PM 17.6 °F 3.2 °F 14.0 °F 86% 30.21 in 1.5 mi North 15.0 mph 25.3 mph N/A Snow Light Snow
4:13 PM 15.8 °F 2.1 °F 14.0 °F 93% 30.22 in 1.5 mi North 12.7 mph 24.2 mph N/A Snow Light Snow
4:58 PM 14.9 °F -0.8 °F 12.6 °F 90% 30.30 in 1.5 mi North 16.1 mph 23.0 mph 0.01 in Snow Light Snow
5:58 PM 12.6 °F -2.0 °F 9.5 °F 88% 30.32 in 1.5 mi North 12.7 mph 25.3 mph 0.00 in Snow Light Snow
6:03 PM 12.2 °F -1.8 °F 8.6 °F 85% 30.25 in 2.0 mi North 11.5 mph 21.9 mph N/A Snow Light Snow
6:08 PM 12.2 °F -3.1 °F 8.6 °F 85% 30.26 in 2.5 mi North 13.8 mph 19.6 mph N/A Snow Light Snow
6:23 PM 12.2 °F -3.7 °F 8.6 °F 85% 30.26 in 1.8 mi North 15.0 mph 25.3 mph N/A Snow Light Snow
6:48 PM 10.4 °F -6.0 °F 8.6 °F 92% 30.27 in 2.0 mi North 15.0 mph 21.9 mph N/A Snow Light Snow
6:58 PM 10.9 °F -7.0 °F 7.5 °F 86% 30.34 in 2.0 mi North 18.4 mph 25.3 mph 0.02 in Snow Light Snow
7:23 PM 10.4 °F -7.2 °F 6.8 °F 85% 30.28 in 2.0 mi North 17.3 mph 25.3 mph N/A Snow Light Snow
7:58 PM 9.0 °F -7.9 °F 5.2 °F 85% 30.38 in 2.5 mi North 15.0 mph 23.0 mph 0.00 in Snow Light Snow
8:58 PM 7.9 °F -9.3 °F 4.1 °F 85% 30.40 in 2.5 mi North 15.0 mph 21.9 mph 0.01 in Snow Light Snow
9:13 PM 6.8 °F -8.6 °F 3.2 °F 85% 30.34 in 3.0 mi North 11.5 mph 21.9 mph N/A Snow Light Snow
9:58 PM 7.2 °F -8.9 °F 2.8 °F 82% 30.44 in 3.0 mi NNW 12.7 mph 26.5 mph 0.02 in Snow Light Snow
10:13 PM 6.8 °F -10.0 °F 1.4 °F 79% 30.36 in 3.0 mi North 13.8 mph 23.0 mph N/A Snow Light Snow
10:58 PM 5.9 °F -14.1 °F 1.2 °F 81% 30.45 in 3.0 mi NNW 19.6 mph 27.6 mph 0.03 in Snow Light Snow
11:48 PM 5.0 °F -12.3 °F -0.4 °F 78% 30.38 in 3.0 mi NNW 13.8 mph 24.2 mph N/A Snow Light Snow
11:58 PM 4.8 °F -12.5 °F 0.1 °F 81% 30.47 in 3.0 mi NNW 13.8 mph 23.0 mph 0.02 in Snow Light Snow